Time;durP1;ratioP1;P1;durP2;ratioP2;P2;SDS_P1;SDS_P2;PMS_P1;PMS_P2;Temp;Humidity;BMP_temperature;BMP_pressure;BME280_temperature;BME280_humidity;BME280_pressure;Samples;Min_cycle;Max_cycle;Signal;HPM_P1;HPM_P2
2020/12/28 00:00:14;;;;;;;8.33;6.17;;;1.90;99.90;;;;;;5012196;28;20228;-62
2020/12/28 00:02:41;;;;;;;9.00;6.57;;;2.00;99.90;;;;;;5010882;28;20212;-63
2020/12/28 00:05:09;;;;;;;7.33;5.87;;;2.00;99.90;;;;;;5012189;28;20204;-63
2020/12/28 00:07:39;;;;;;;11.93;7.43;;;2.00;99.90;;;;;;5019089;28;20223;-61
2020/12/28 00:10:09;;;;;;;10.47;7.23;;;2.00;99.90;;;;;;5019082;28;20204;-64
2020/12/28 00:12:47;;;;;;;11.40;7.50;;;2.00;99.90;;;;;;5016985;28;20196;-62
2020/12/28 00:15:15;;;;;;;10.77;7.47;;;2.00;99.90;;;;;;5018140;28;20590;-63
2020/12/28 00:17:44;;;;;;;9.00;7.73;;;2.00;99.90;;;;;;5017147;28;20250;-62
2020/12/28 00:20:11;;;;;;;14.93;8.70;;;2.10;99.90;;;;;;5016043;28;20227;-63
2020/12/28 00:22:38;;;;;;;9.90;8.13;;;2.20;99.90;;;;;;5012956;28;20749;-64
2020/12/28 00:25:05;;;;;;;13.30;8.30;;;2.20;99.90;;;;;;5006640;28;20244;-63
2020/12/28 00:27:32;;;;;;;9.97;7.97;;;2.30;99.90;;;;;;5011570;28;20211;-63
2020/12/28 00:29:58;;;;;;;10.43;7.67;;;2.40;99.90;;;;;;5010064;28;20259;-63
2020/12/28 00:32:25;;;;;;;9.83;7.10;;;2.40;99.90;;;;;;5010510;28;20657;-63
2020/12/28 00:34:51;;;;;;;12.60;8.70;;;2.40;99.90;;;;;;5010906;28;20208;-62
2020/12/28 00:37:18;;;;;;;10.53;8.50;;;2.40;99.90;;;;;;5008195;28;20200;-63
2020/12/28 00:39:45;;;;;;;11.07;8.23;;;2.40;99.90;;;;;;5011615;28;20224;-64
2020/12/28 00:42:12;;;;;;;10.83;8.40;;;2.30;99.90;;;;;;5012272;28;20196;-64
2020/12/28 00:44:38;;;;;;;10.93;7.87;;;2.20;99.90;;;;;;5006417;28;20204;-63
2020/12/28 00:47:05;;;;;;;10.23;8.63;;;2.20;99.90;;;;;;5008003;28;20692;-63
2020/12/28 00:49:31;;;;;;;17.73;8.63;;;2.10;99.90;;;;;;5008574;28;20204;-64
2020/12/28 00:51:58;;;;;;;13.23;8.60;;;2.10;99.90;;;;;;5008824;28;20510;-63
2020/12/28 00:54:24;;;;;;;11.60;8.73;;;2.10;99.90;;;;;;5008286;28;20200;-64
2020/12/28 00:56:52;;;;;;;16.47;9.17;;;2.20;99.90;;;;;;5010484;28;20200;-64
2020/12/28 00:59:18;;;;;;;12.90;9.40;;;2.20;99.90;;;;;;5008987;28;20228;-63
2020/12/28 01:01:45;;;;;;;18.23;9.30;;;2.20;99.90;;;;;;5010009;28;20208;-63
2020/12/28 01:04:11;;;;;;;13.50;8.47;;;2.20;99.90;;;;;;5008400;28;20196;-63
2020/12/28 01:06:42;;;;;;;11.27;8.23;;;2.10;99.90;;;;;;5008853;28;20200;-64
2020/12/28 01:09:09;;;;;;;13.27;9.00;;;2.00;99.90;;;;;;5009569;28;20698;-62
2020/12/28 01:11:35;;;;;;;9.87;7.63;;;2.00;99.90;;;;;;5010722;28;20204;-62
2020/12/28 01:14:03;;;;;;;11.80;7.30;;;1.90;99.90;;;;;;5011039;28;20661;-63
2020/12/28 01:16:29;;;;;;;12.70;7.30;;;1.90;99.90;;;;;;5009870;28;20301;-63
2020/12/28 01:18:56;;;;;;;10.20;7.50;;;1.90;99.90;;;;;;5010253;28;20216;-63
2020/12/28 01:21:23;;;;;;;10.87;8.07;;;1.90;99.90;;;;;;5009077;28;20539;-63
2020/12/28 01:23:50;;;;;;;10.93;7.83;;;1.80;99.90;;;;;;5009626;28;20205;-63
2020/12/28 01:26:17;;;;;;;10.03;7.63;;;1.80;99.90;;;;;;5010063;28;20286;-63
2020/12/28 01:28:44;;;;;;;15.07;8.43;;;1.80;99.90;;;;;;5010256;28;20571;-63
2020/12/28 01:31:12;;;;;;;10.40;6.63;;;1.70;99.90;;;;;;5008159;28;20250;-62
2020/12/28 01:33:38;;;;;;;14.50;7.53;;;1.70;99.90;;;;;;5008582;28;20228;-62
2020/12/28 01:36:05;;;;;;;12.30;7.43;;;1.80;99.90;;;;;;5014294;28;20204;-62
2020/12/28 01:38:31;;;;;;;12.07;7.13;;;1.80;99.90;;;;;;5014407;28;20230;-63
2020/12/28 01:40:58;;;;;;;10.37;6.27;;;1.80;99.90;;;;;;5011830;28;20807;-63
2020/12/28 01:43:25;;;;;;;8.63;6.83;;;1.80;99.90;;;;;;5011846;28;20282;-61
2020/12/28 01:45:52;;;;;;;8.67;6.00;;;1.70;99.90;;;;;;5011758;28;20201;-62
2020/12/28 01:48:20;;;;;;;10.53;6.60;;;1.60;99.90;;;;;;5004617;28;20239;-62
2020/12/28 01:50:46;;;;;;;12.97;7.87;;;1.50;99.90;;;;;;5007691;28;20314;-63
2020/12/28 01:53:16;;;;;;;7.93;6.27;;;1.50;99.90;;;;;;5008339;28;20239;-63
2020/12/28 01:55:45;;;;;;;7.73;5.37;;;1.30;99.90;;;;;;5008756;28;20211;-62
2020/12/28 01:58:11;;;;;;;8.53;6.07;;;1.20;99.90;;;;;;5008329;28;20288;-63
2020/12/28 02:00:38;;;;;;;7.00;5.30;;;1.00;99.90;;;;;;5006935;28;20196;-63
2020/12/28 02:03:07;;;;;;;8.10;6.33;;;0.90;99.90;;;;;;5010397;28;20557;-62
2020/12/28 02:05:35;;;;;;;8.50;5.67;;;0.80;99.90;;;;;;5010119;28;20199;-62
2020/12/28 02:08:02;;;;;;;14.90;5.70;;;0.70;99.90;;;;;;5006319;28;20208;-64
2020/12/28 02:10:29;;;;;;;9.43;5.57;;;0.70;99.90;;;;;;5004244;28;20209;-63
2020/12/28 02:12:55;;;;;;;6.67;5.10;;;0.70;99.90;;;;;;5007181;28;22168;-62
2020/12/28 02:15:22;;;;;;;6.63;5.13;;;0.70;99.90;;;;;;5008970;28;20201;-62
2020/12/28 02:17:48;;;;;;;11.00;5.70;;;0.70;99.90;;;;;;5007010;28;20212;-63
2020/12/28 02:20:15;;;;;;;6.40;4.90;;;0.70;99.90;;;;;;5003481;28;20228;-62
2020/12/28 02:22:43;;;;;;;8.60;4.30;;;0.70;99.90;;;;;;5009161;28;20197;-63
2020/12/28 02:25:10;;;;;;;10.93;4.07;;;0.70;99.90;;;;;;5007407;28;20327;-64
2020/12/28 02:27:37;;;;;;;4.63;3.50;;;0.70;99.90;;;;;;5011566;28;20200;-64
2020/12/28 02:30:04;;;;;;;4.70;3.90;;;0.70;99.90;;;;;;5008665;28;20620;-64
2020/12/28 02:32:31;;;;;;;2.93;1.80;;;0.70;99.90;;;;;;5006275;28;20522;-63
2020/12/28 02:34:57;;;;;;;0.10;0.10;;;0.90;99.90;;;;;;5008512;28;20212;-63
2020/12/28 02:37:24;;;;;;;0.00;0.00;;;1.20;99.90;;;;;;5010586;28;20204;-63
2020/12/28 02:39:52;;;;;;;0.47;0.47;;;1.30;99.90;;;;;;5004638;28;20216;-64
2020/12/28 02:42:18;;;;;;;0.00;0.00;;;1.50;99.90;;;;;;5011589;28;20205;-62
2020/12/28 02:44:45;;;;;;;0.10;0.10;;;1.70;99.90;;;;;;5010721;28;20224;-63
2020/12/28 02:47:11;;;;;;;0.00;0.00;;;1.80;99.90;;;;;;5009018;28;20784;-63
2020/12/28 02:49:38;;;;;;;0.00;0.00;;;2.00;99.90;;;;;;5010954;28;20200;-63
2020/12/28 02:52:04;;;;;;;0.00;0.00;;;2.10;99.90;;;;;;5006689;28;21210;-63
2020/12/28 02:54:31;;;;;;;0.00;0.00;;;2.10;99.90;;;;;;5009509;28;20211;-64
2020/12/28 02:56:58;;;;;;;0.70;0.70;;;2.10;99.90;;;;;;5014223;28;20672;-64
2020/12/28 02:59:25;;;;;;;0.03;0.03;;;2.00;99.90;;;;;;5017461;28;20239;-63
2020/12/28 03:01:51;;;;;;;0.10;0.10;;;1.90;99.90;;;;;;5014381;28;20211;-63
2020/12/28 03:04:18;;;;;;;0.33;0.33;;;1.80;99.90;;;;;;5011927;28;20665;-63
2020/12/28 03:06:44;;;;;;;0.00;0.00;;;1.80;99.90;;;;;;5010112;28;20203;-63
2020/12/28 03:09:11;;;;;;;0.00;0.00;;;1.80;99.90;;;;;;5013015;28;20205;-63
2020/12/28 03:11:37;;;;;;;0.00;0.00;;;1.90;99.90;;;;;;5010617;28;20212;-63
2020/12/28 03:14:05;;;;;;;0.00;0.00;;;1.90;99.90;;;;;;5013984;28;20208;-62
2020/12/28 03:16:32;;;;;;;0.10;0.10;;;2.00;99.90;;;;;;5012143;28;20196;-64
2020/12/28 03:18:59;;;;;;;2.10;0.67;;;2.10;99.90;;;;;;5012662;28;20256;-63
2020/12/28 03:21:25;;;;;;;0.60;0.60;;;2.00;99.90;;;;;;5010063;28;20224;-62
2020/12/28 03:23:52;;;;;;;0.20;0.20;;;2.10;99.90;;;;;;5010449;28;20212;-63
2020/12/28 03:26:18;;;;;;;0.00;0.00;;;2.10;99.90;;;;;;5011829;28;20713;-63
2020/12/28 03:28:45;;;;;;;0.00;0.00;;;2.10;99.90;;;;;;5009131;28;20208;-63
2020/12/28 03:31:12;;;;;;;1.10;0.47;;;2.00;99.90;;;;;;5011298;28;20208;-63
2020/12/28 03:33:39;;;;;;;0.00;0.00;;;1.90;99.90;;;;;;5007865;28;20204;-62
2020/12/28 03:36:05;;;;;;;0.00;0.00;;;1.90;99.90;;;;;;5011138;28;20227;-64
2020/12/28 03:38:32;;;;;;;0.37;0.37;;;1.90;99.90;;;;;;5012940;28;20201;-63
2020/12/28 03:40:58;;;;;;;0.27;0.27;;;1.90;99.90;;;;;;5018153;28;20205;-63
2020/12/28 03:43:25;;;;;;;0.37;0.37;;;1.90;99.90;;;;;;5010418;28;20205;-63
2020/12/28 03:45:51;;;;;;;0.10;0.10;;;2.00;99.90;;;;;;5008329;28;20682;-63
2020/12/28 03:48:19;;;;;;;0.00;0.00;;;2.00;99.90;;;;;;5007292;28;20193;-64
2020/12/28 03:50:45;;;;;;;0.00;0.00;;;2.10;99.90;;;;;;5009057;28;20207;-63
2020/12/28 03:53:12;;;;;;;0.97;0.97;;;2.20;99.90;;;;;;5009533;28;20215;-63
2020/12/28 03:55:38;;;;;;;0.30;0.30;;;2.20;99.90;;;;;;5009563;28;20216;-63
2020/12/28 03:58:05;;;;;;;0.10;0.10;;;2.20;99.90;;;;;;5011179;28;20784;-62
2020/12/28 04:00:31;;;;;;;1.70;1.60;;;2.30;99.90;;;;;;5008842;28;20275;-63
2020/12/28 04:02:58;;;;;;;0.00;0.00;;;2.30;99.90;;;;;;5012226;28;20680;-64
2020/12/28 04:05:25;;;;;;;0.00;0.00;;;2.30;99.90;;;;;;5009722;28;20212;-64
2020/12/28 04:07:52;;;;;;;2.70;1.00;;;2.20;99.90;;;;;;5006517;28;20212;-63
2020/12/28 04:10:18;;;;;;;0.30;0.30;;;2.20;99.90;;;;;;5012813;28;20598;-63
2020/12/28 04:12:45;;;;;;;0.00;0.00;;;2.30;99.90;;;;;;5007003;28;20216;-64
2020/12/28 04:15:11;;;;;;;0.20;0.20;;;2.30;99.90;;;;;;5010526;28;20242;-64
2020/12/28 04:17:38;;;;;;;0.30;0.30;;;2.20;99.90;;;;;;5006863;28;20204;-63
2020/12/28 04:20:04;;;;;;;0.53;0.40;;;2.20;99.90;;;;;;5008583;28;20224;-63
2020/12/28 04:22:32;;;;;;;0.10;0.10;;;2.20;99.90;;;;;;5012039;28;20291;-62
2020/12/28 04:24:58;;;;;;;0.57;0.57;;;2.10;99.90;;;;;;5010218;28;20483;-64
2020/12/28 04:27:25;;;;;;;0.20;0.20;;;2.10;99.90;;;;;;5007445;28;20205;-63
2020/12/28 04:29:51;;;;;;;0.00;0.00;;;2.20;99.90;;;;;;5015395;28;20197;-64
2020/12/28 04:32:18;;;;;;;0.20;0.20;;;2.20;99.90;;;;;;5018998;28;20203;-63
2020/12/28 04:34:44;;;;;;;0.10;0.10;;;2.10;99.90;;;;;;5017666;28;20255;-64
2020/12/28 04:37:11;;;;;;;1.33;1.23;;;2.10;99.90;;;;;;5019641;28;20208;-64
2020/12/28 04:39:38;;;;;;;0.50;0.50;;;2.10;99.90;;;;;;5021379;28;20235;-65
2020/12/28 04:42:04;;;;;;;0.50;0.50;;;2.10;99.90;;;;;;5014968;28;20213;-64
2020/12/28 04:44:31;;;;;;;0.37;0.37;;;2.10;99.90;;;;;;5009225;28;20258;-64
2020/12/28 04:46:58;;;;;;;0.00;0.00;;;2.10;99.90;;;;;;5009450;28;20205;-64
2020/12/28 04:49:24;;;;;;;1.10;0.67;;;2.10;99.90;;;;;;5007858;28;20200;-65
2020/12/28 04:51:53;;;;;;;0.20;0.20;;;2.20;99.90;;;;;;5011289;28;20200;-64
2020/12/28 04:54:20;;;;;;;1.27;1.27;;;2.30;99.90;;;;;;5007868;28;20204;-63
2020/12/28 04:56:47;;;;;;;0.30;0.30;;;2.40;99.90;;;;;;5012042;28;20199;-64
2020/12/28 04:59:14;;;;;;;0.37;0.37;;;2.50;99.90;;;;;;5008456;28;20228;-64
2020/12/28 05:01:52;;;;;;;0.10;0.10;;;2.60;99.90;;;;;;5008424;28;20242;-63
2020/12/28 05:04:18;;;;;;;0.10;0.10;;;2.70;99.90;;;;;;5005669;28;20698;-63
2020/12/28 05:06:55;;;;;;;0.97;0.30;;;2.70;99.90;;;;;;5007861;28;20212;-64
2020/12/28 05:09:22;;;;;;;0.00;0.00;;;2.70;99.90;;;;;;5011112;28;20971;-64
2020/12/28 05:11:53;;;;;;;0.07;0.07;;;2.70;99.90;;;;;;5006754;28;20209;-64
2020/12/28 05:14:20;;;;;;;0.10;0.10;;;2.70;99.90;;;;;;5006020;28;20296;-64
2020/12/28 05:16:47;;;;;;;0.00;0.00;;;2.70;99.90;;;;;;5006484;28;20211;-62
2020/12/28 05:19:13;;;;;;;0.10;0.10;;;2.60;99.90;;;;;;5007991;28;20224;-63
2020/12/28 05:21:41;;;;;;;0.07;0.07;;;2.60;99.90;;;;;;5007007;28;20221;-63
2020/12/28 05:24:14;;;;;;;3.57;1.67;;;2.50;99.90;;;;;;5009605;28;20204;-64
2020/12/28 05:26:42;;;;;;;0.00;0.00;;;2.50;99.90;;;;;;5007278;28;20243;-64
2020/12/28 05:29:13;;;;;;;0.43;0.43;;;2.40;99.90;;;;;;5005939;28;20495;-64
2020/12/28 05:31:41;;;;;;;0.00;0.00;;;2.40;99.90;;;;;;5007194;28;20200;-64
2020/12/28 05:34:13;;;;;;;0.10;0.10;;;2.40;99.90;;;;;;5006527;28;20263;-64
2020/12/28 05:36:40;;;;;;;0.20;0.20;;;2.40;99.90;;;;;;5008842;28;20200;-64
2020/12/28 05:39:06;;;;;;;0.00;0.00;;;2.40;99.90;;;;;;5007312;28;20267;-64
2020/12/28 05:41:33;;;;;;;0.20;0.20;;;2.50;99.90;;;;;;5006426;28;20205;-63
2020/12/28 05:44:12;;;;;;;0.10;0.10;;;2.50;99.90;;;;;;5013989;28;20219;-63
2020/12/28 05:46:38;;;;;;;0.10;0.10;;;2.50;99.90;;;;;;5007916;28;20211;-64
2020/12/28 05:49:08;;;;;;;0.00;0.00;;;2.50;99.90;;;;;;5005812;28;20681;-64
2020/12/28 05:51:36;;;;;;;1.03;0.73;;;2.50;99.90;;;;;;5006142;28;20601;-64
2020/12/28 05:54:11;;;;;;;0.00;0.00;;;2.60;99.90;;;;;;5004687;28;20391;-63
2020/12/28 05:56:44;;;;;;;0.20;0.20;;;2.60;99.90;;;;;;5005030;28;20291;-64
2020/12/28 05:59:13;;;;;;;0.57;0.57;;;2.60;99.90;;;;;;5006210;28;20270;-63
2020/12/28 06:01:44;;;;;;;0.00;0.00;;;2.60;99.90;;;;;;5010326;28;20228;-63
2020/12/28 06:04:15;;;;;;;0.00;0.00;;;2.60;99.90;;;;;;5014812;28;20224;-64
2020/12/28 06:06:43;;;;;;;0.00;0.00;;;2.60;99.90;;;;;;5016184;28;20665;-63
2020/12/28 06:09:10;;;;;;;0.53;0.43;;;2.60;99.90;;;;;;5015820;28;20205;-64
2020/12/28 06:11:37;;;;;;;0.00;0.00;;;2.60;99.90;;;;;;5019613;28;20200;-63
2020/12/28 06:14:21;;;;;;;0.07;0.07;;;2.60;99.90;;;;;;5017626;28;20603;-64
2020/12/28 06:16:48;;;;;;;0.00;0.00;;;2.60;99.90;;;;;;5017012;28;20203;-63
2020/12/28 06:19:24;;;;;;;0.00;0.00;;;2.60;99.90;;;;;;5017677;28;20278;-62
2020/12/28 06:21:52;;;;;;;0.57;0.57;;;2.60;99.90;;;;;;5016198;28;20657;-64
2020/12/28 06:24:30;;;;;;;0.30;0.27;;;2.70;99.90;;;;;;5016036;28;20196;-64
2020/12/28 06:27:04;;;;;;;0.00;0.00;;;2.70;99.90;;;;;;5017987;28;20236;-63
2020/12/28 06:29:33;;;;;;;0.37;0.23;;;2.70;99.90;;;;;;5019158;28;20195;-64
2020/12/28 06:32:10;;;;;;;0.00;0.00;;;2.70;99.90;;;;;;5023683;28;20255;-63
2020/12/28 06:34:37;;;;;;;0.30;0.30;;;2.70;99.90;;;;;;5021592;28;20248;-63
2020/12/28 06:37:03;;;;;;;0.10;0.10;;;2.80;99.90;;;;;;5024432;28;20200;-64
2020/12/28 06:39:30;;;;;;;0.20;0.20;;;2.80;99.90;;;;;;5023207;28;20956;-63
2020/12/28 06:42:10;;;;;;;0.00;0.00;;;2.90;99.90;;;;;;5021929;28;20205;-65
2020/12/28 06:44:38;;;;;;;0.10;0.10;;;3.00;99.90;;;;;;5022998;28;20200;-64
2020/12/28 06:47:17;;;;;;;0.40;0.40;;;3.10;99.90;;;;;;5019059;28;20192;-63
2020/12/28 06:49:44;;;;;;;1.30;1.20;;;3.20;99.90;;;;;;5020689;28;20203;-63
2020/12/28 06:52:11;;;;;;;3.07;2.03;;;3.30;99.90;;;;;;5019859;28;20661;-62
2020/12/28 06:54:38;;;;;;;0.13;0.13;;;3.40;99.90;;;;;;5015907;28;20254;-64
2020/12/28 06:57:05;;;;;;;0.00;0.00;;;3.40;99.90;;;;;;5013186;28;20212;-63
2020/12/28 06:59:32;;;;;;;0.33;0.33;;;3.40;99.90;;;;;;5012976;28;20219;-64
2020/12/28 07:02:01;;;;;;;0.90;0.90;;;3.40;99.90;;;;;;5011891;28;20669;-63
2020/12/28 07:04:28;;;;;;;1.80;1.67;;;3.40;99.90;;;;;;5011754;28;20193;-62
2020/12/28 07:06:58;;;;;;;6.23;1.80;;;3.40;99.90;;;;;;5012393;28;20200;-64
2020/12/28 07:09:25;;;;;;;0.93;0.83;;;3.40;99.90;;;;;;5012422;28;20313;-63
2020/12/28 07:11:51;;;;;;;0.00;0.00;;;3.40;99.90;;;;;;5012717;28;20209;-63
2020/12/28 07:14:19;;;;;;;0.00;0.00;;;3.30;99.90;;;;;;5011364;28;20205;-64
2020/12/28 07:16:46;;;;;;;0.10;0.10;;;3.40;99.90;;;;;;5010908;28;20630;-63
2020/12/28 07:19:13;;;;;;;0.00;0.00;;;3.40;99.90;;;;;;5013246;28;20306;-63
2020/12/28 07:21:40;;;;;;;0.27;0.27;;;3.40;99.90;;;;;;5009192;28;20700;-63
2020/12/28 07:24:07;;;;;;;0.20;0.20;;;3.40;99.90;;;;;;5009813;28;20204;-63
2020/12/28 07:26:34;;;;;;;0.00;0.00;;;3.40;99.90;;;;;;5014331;28;20892;-63
2020/12/28 07:29:01;;;;;;;0.10;0.10;;;3.40;99.90;;;;;;5012014;28;20217;-64
2020/12/28 07:31:27;;;;;;;0.00;0.00;;;3.40;99.90;;;;;;5014939;28;20561;-63
2020/12/28 07:33:54;;;;;;;0.00;0.00;;;3.50;99.90;;;;;;5010133;28;20266;-64
2020/12/28 07:36:24;;;;;;;0.07;0.07;;;3.50;99.90;;;;;;5008806;28;20208;-64
2020/12/28 07:38:51;;;;;;;0.00;0.00;;;3.50;99.90;;;;;;5007942;28;21266;-63
2020/12/28 07:41:19;;;;;;;0.00;0.00;;;3.60;99.90;;;;;;5009040;28;20208;-64
2020/12/28 07:43:50;;;;;;;0.27;0.27;;;3.60;99.90;;;;;;5010943;28;20197;-63
2020/12/28 07:46:29;;;;;;;0.77;0.50;;;3.60;99.90;;;;;;5017741;28;20200;-63
2020/12/28 07:48:59;;;;;;;0.50;0.20;;;3.60;99.90;;;;;;5019266;28;20204;-63
2020/12/28 07:51:28;;;;;;;0.00;0.00;;;3.60;99.90;;;;;;5019863;28;20196;-63
2020/12/28 07:54:12;;;;;;;0.43;0.43;;;3.70;99.90;;;;;;5014247;28;20319;-66
2020/12/28 07:56:45;;;;;;;0.00;0.00;;;3.70;99.90;;;;;;5007961;28;22106;-65
2020/12/28 07:59:30;;;;;;;0.00;0.00;;;3.70;99.90;;;;;;5010496;28;20651;-65
2020/12/28 08:02:02;;;;;;;0.00;0.00;;;3.70;99.90;;;;;;5013478;28;20196;-69
2020/12/28 08:04:29;;;;;;;0.10;0.10;;;3.70;99.90;;;;;;5017078;28;20353;-64
2020/12/28 08:06:58;;;;;;;0.67;0.27;;;3.70;99.90;;;;;;5019932;28;20200;-63
2020/12/28 08:09:25;;;;;;;0.37;0.20;;;3.70;99.90;;;;;;5019003;28;20223;-64
2020/12/28 08:11:58;;;;;;;0.27;0.27;;;3.80;99.90;;;;;;5019681;28;20212;-63
2020/12/28 08:14:25;;;;;;;0.00;0.00;;;3.80;99.90;;;;;;5018562;28;20209;-64
2020/12/28 08:16:51;;;;;;;0.80;0.60;;;3.80;99.90;;;;;;5019557;28;20208;-63
2020/12/28 08:19:25;;;;;;;0.00;0.00;;;3.80;99.90;;;;;;5019134;28;20704;-63
2020/12/28 08:21:51;;;;;;;0.67;0.67;;;3.80;99.90;;;;;;5019224;28;20287;-62
2020/12/28 08:24:20;;;;;;;0.10;0.10;;;3.80;99.90;;;;;;5017391;28;21233;-63
2020/12/28 08:26:47;;;;;;;0.83;0.83;;;3.80;99.90;;;;;;5018456;28;20358;-62
2020/12/28 08:29:14;;;;;;;1.23;1.23;;;3.90;99.90;;;;;;5019482;28;20661;-64
2020/12/28 08:31:42;;;;;;;0.00;0.00;;;3.90;99.90;;;;;;5019098;28;20197;-63
2020/12/28 08:34:10;;;;;;;0.00;0.00;;;3.90;99.90;;;;;;5021929;28;20200;-64
2020/12/28 08:36:39;;;;;;;0.53;0.53;;;3.90;99.90;;;;;;5020107;28;20208;-62
2020/12/28 08:39:13;;;;;;;0.00;0.00;;;4.00;99.90;;;;;;5019729;28;20376;-65
2020/12/28 08:41:49;;;;;;;0.87;0.77;;;4.00;99.90;;;;;;5018269;28;20200;-64
2020/12/28 08:44:25;;;;;;;0.00;0.00;;;4.00;99.90;;;;;;5018427;28;20192;-63
2020/12/28 08:46:51;;;;;;;0.20;0.20;;;4.00;99.90;;;;;;5018980;28;20278;-63
2020/12/28 08:49:24;;;;;;;0.10;0.10;;;4.00;99.90;;;;;;5009630;28;20239;-63
2020/12/28 08:51:52;;;;;;;0.43;0.43;;;4.00;99.90;;;;;;5011254;28;20331;-71
2020/12/28 08:54:25;;;;;;;0.00;0.00;;;4.00;99.90;;;;;;5009734;28;20245;-64
2020/12/28 08:56:52;;;;;;;0.00;0.00;;;4.10;99.90;;;;;;5010249;28;20670;-69
2020/12/28 08:59:19;;;;;;;0.00;0.00;;;4.10;99.90;;;;;;5018010;28;20228;-64
2020/12/28 09:01:46;;;;;;;0.00;0.00;;;4.10;99.90;;;;;;5020960;28;20201;-64
2020/12/28 09:04:12;;;;;;;0.20;0.20;;;4.00;99.90;;;;;;5018878;28;20292;-64
2020/12/28 09:06:42;;;;;;;0.10;0.10;;;4.10;99.90;;;;;;5019767;28;20200;-64
2020/12/28 09:09:08;;;;;;;1.07;0.97;;;4.10;99.90;;;;;;5018290;28;20669;-63
2020/12/28 09:11:35;;;;;;;0.00;0.00;;;4.10;99.90;;;;;;5019229;28;20751;-65
2020/12/28 09:14:03;;;;;;;0.00;0.00;;;4.10;99.90;;;;;;5020363;28;20265;-65
2020/12/28 09:16:29;;;;;;;0.00;0.00;;;4.10;99.90;;;;;;5018950;28;20204;-64
2020/12/28 09:18:55;;;;;;;5.07;2.37;;;4.10;99.90;;;;;;5016512;28;20246;-64
2020/12/28 09:21:22;;;;;;;15.93;6.60;;;4.10;99.90;;;;;;5018276;28;20201;-62
2020/12/28 09:23:49;;;;;;;16.03;8.00;;;4.10;99.90;;;;;;5018494;28;20744;-65
2020/12/28 09:26:16;;;;;;;16.10;8.43;;;4.10;99.90;;;;;;5017716;28;20716;-62
2020/12/28 09:28:43;;;;;;;20.87;9.70;;;4.10;99.90;;;;;;5012965;28;20209;-64
2020/12/28 09:31:11;;;;;;;17.80;9.47;;;4.10;99.90;;;;;;5011796;28;20689;-62
2020/12/28 09:33:38;;;;;;;19.20;10.20;;;4.10;99.90;;;;;;5009049;28;20207;-63
2020/12/28 09:36:04;;;;;;;25.13;10.13;;;4.10;99.90;;;;;;5011694;28;20200;-63
2020/12/28 09:38:31;;;;;;;18.03;8.87;;;4.10;99.90;;;;;;5007315;28;20669;-64
2020/12/28 09:40:57;;;;;;;15.60;9.90;;;4.20;99.90;;;;;;5005793;28;20705;-63
2020/12/28 09:43:24;;;;;;;14.03;9.43;;;4.20;99.90;;;;;;5009104;28;22629;-63
2020/12/28 09:45:50;;;;;;;18.03;9.93;;;4.20;99.90;;;;;;5005814;28;20213;-65
2020/12/28 09:48:18;;;;;;;18.33;10.27;;;4.20;99.90;;;;;;5008357;28;20666;-64
2020/12/28 09:50:45;;;;;;;20.47;10.13;;;4.30;99.90;;;;;;5009564;28;20487;-64
2020/12/28 09:53:12;;;;;;;20.00;10.90;;;4.20;99.90;;;;;;5018332;28;20767;-63
2020/12/28 09:55:38;;;;;;;24.80;10.13;;;4.30;99.90;;;;;;5017858;28;20204;-64
2020/12/28 09:58:04;;;;;;;21.07;10.30;;;4.30;99.90;;;;;;5016812;28;20229;-63
2020/12/28 10:00:31;;;;;;;17.63;9.20;;;4.20;99.90;;;;;;5018261;28;20220;-67
2020/12/28 10:02:57;;;;;;;13.87;8.67;;;4.30;99.90;;;;;;5012001;28;20208;-65
2020/12/28 10:05:25;;;;;;;14.33;8.43;;;4.40;99.90;;;;;;5016452;28;20211;-64
2020/12/28 10:07:51;;;;;;;15.67;7.80;;;4.50;99.90;;;;;;5014468;28;20212;-63
2020/12/28 10:10:18;;;;;;;14.50;7.43;;;4.60;99.90;;;;;;5011922;28;20212;-65
2020/12/28 10:12:44;;;;;;;19.70;8.97;;;4.60;99.90;;;;;;5011902;28;22158;-65
2020/12/28 10:15:11;;;;;;;15.60;7.87;;;4.70;99.90;;;;;;5018692;28;20200;-65
2020/12/28 10:17:38;;;;;;;19.07;7.83;;;4.70;99.90;;;;;;5019984;28;20315;-65
2020/12/28 10:20:04;;;;;;;14.30;7.17;;;4.80;99.90;;;;;;5016991;28;20233;-65
2020/12/28 10:22:32;;;;;;;13.27;8.00;;;4.90;99.90;;;;;;5011912;28;20208;-64
2020/12/28 10:24:58;;;;;;;10.67;7.20;;;4.90;99.90;;;;;;5012630;28;20224;-64
2020/12/28 10:27:25;;;;;;;14.57;7.57;;;5.00;99.90;;;;;;5014125;28;22050;-66
2020/12/28 10:29:51;;;;;;;12.23;7.83;;;4.90;99.90;;;;;;5013704;28;20212;-65
2020/12/28 10:32:18;;;;;;;14.47;8.43;;;4.80;99.90;;;;;;5012824;28;20204;-65
2020/12/28 10:34:44;;;;;;;12.93;7.97;;;4.70;99.90;;;;;;5011228;28;20573;-67
2020/12/28 10:37:11;;;;;;;13.47;8.67;;;4.70;99.90;;;;;;5011528;28;20200;-64
2020/12/28 10:39:38;;;;;;;18.03;8.50;;;4.70;99.90;;;;;;5012415;28;20239;-70
2020/12/28 10:42:05;;;;;;;14.33;8.20;;;4.80;99.90;;;;;;5012382;28;20263;-73
2020/12/28 10:44:31;;;;;;;18.80;9.00;;;4.90;99.90;;;;;;5012279;28;20217;-65
2020/12/28 10:46:58;;;;;;;11.63;7.97;;;5.20;99.90;;;;;;5011699;28;20215;-71
2020/12/28 10:49:24;;;;;;;15.17;9.17;;;5.40;99.90;;;;;;5009994;28;20215;-62
2020/12/28 10:51:51;;;;;;;15.50;8.77;;;5.50;99.90;;;;;;5011209;28;20196;-62
2020/12/28 10:54:17;;;;;;;17.27;9.63;;;5.60;99.90;;;;;;5010554;28;20263;-63
2020/12/28 10:56:45;;;;;;;16.13;7.93;;;5.60;99.90;;;;;;5010566;28;20219;-63
2020/12/28 10:59:11;;;;;;;14.17;7.87;;;5.70;99.90;;;;;;5008231;28;20205;-64
2020/12/28 11:01:38;;;;;;;13.83;7.67;;;5.80;99.90;;;;;;5011822;28;20565;-63
2020/12/28 11:04:04;;;;;;;14.27;7.80;;;5.80;99.90;;;;;;5008639;28;20739;-69
2020/12/28 11:06:31;;;;;;;11.57;7.03;;;6.00;99.90;;;;;;5015332;28;20204;-71
2020/12/28 11:08:57;;;;;;;11.87;7.57;;;5.80;99.90;;;;;;5010445;28;20213;-61
2020/12/28 11:11:24;;;;;;;11.53;7.20;;;5.70;99.90;;;;;;5010267;28;20599;-63
2020/12/28 11:13:52;;;;;;;14.17;7.40;;;5.70;99.90;;;;;;5008924;28;20262;-63
2020/12/28 11:16:25;;;;;;;10.43;6.27;;;5.50;99.90;;;;;;5011763;28;20563;-70
2020/12/28 11:18:52;;;;;;;10.23;7.10;;;5.50;99.90;;;;;;5010070;28;20898;-65
2020/12/28 11:21:18;;;;;;;12.20;8.10;;;5.50;99.90;;;;;;5008198;28;20232;-67
2020/12/28 11:24:01;;;;;;;10.77;6.83;;;5.50;99.90;;;;;;5009512;28;20227;-63
2020/12/28 11:26:28;;;;;;;11.27;6.23;;;5.60;99.90;;;;;;5011793;28;20235;-63
2020/12/28 11:28:56;;;;;;;12.63;6.60;;;5.50;99.90;;;;;;5011303;28;20212;-64
2020/12/28 11:31:23;;;;;;;9.00;5.77;;;5.60;99.90;;;;;;5012850;28;20200;-64
2020/12/28 11:33:49;;;;;;;10.47;6.30;;;5.60;99.90;;;;;;5011942;28;20212;-65
2020/12/28 11:36:17;;;;;;;12.07;5.80;;;5.60;99.90;;;;;;5009310;28;20208;-68
2020/12/28 11:38:44;;;;;;;10.60;5.73;;;5.50;99.90;;;;;;5007987;28;20208;-60
2020/12/28 11:41:13;;;;;;;11.20;6.23;;;5.40;99.90;;;;;;5012727;28;21146;-65
2020/12/28 11:43:39;;;;;;;12.53;6.77;;;5.30;99.90;;;;;;5008981;28;20300;-64
2020/12/28 11:46:07;;;;;;;11.00;6.80;;;5.10;99.90;;;;;;5007638;28;20201;-65
2020/12/28 11:48:34;;;;;;;12.30;7.47;;;5.00;99.90;;;;;;5009578;28;20211;-65
2020/12/28 11:51:04;;;;;;;14.63;7.37;;;4.90;99.90;;;;;;5007248;28;20572;-66
2020/12/28 11:53:30;;;;;;;15.97;7.27;;;4.90;99.90;;;;;;5015316;28;20210;-64
2020/12/28 11:56:11;;;;;;;11.50;7.23;;;4.90;99.90;;;;;;5017236;28;20216;-66
2020/12/28 11:58:41;;;;;;;14.80;8.67;;;4.80;99.90;;;;;;5017796;28;20708;-64
2020/12/28 12:01:13;;;;;;;9.57;7.43;;;4.80;99.90;;;;;;5019073;28;20236;-64
2020/12/28 12:03:40;;;;;;;14.30;7.73;;;4.90;99.90;;;;;;5020266;28;20231;-64
2020/12/28 12:06:06;;;;;;;12.73;7.17;;;4.90;99.90;;;;;;5018487;28;20749;-66
2020/12/28 12:08:33;;;;;;;9.20;5.97;;;4.90;99.90;;;;;;5020099;28;20591;-66
2020/12/28 12:10:59;;;;;;;12.17;6.93;;;4.90;99.90;;;;;;5013950;28;20254;-66
2020/12/28 12:13:26;;;;;;;10.50;5.70;;;4.90;99.90;;;;;;5019211;28;20200;-66
2020/12/28 12:15:53;;;;;;;12.00;6.57;;;5.00;99.90;;;;;;5018216;28;20691;-66
2020/12/28 12:18:20;;;;;;;9.67;6.07;;;5.10;99.90;;;;;;5018413;28;20208;-66
2020/12/28 12:20:46;;;;;;;12.53;6.00;;;5.10;99.90;;;;;;5019013;28;20812;-66
2020/12/28 12:23:13;;;;;;;11.27;6.10;;;5.10;99.90;;;;;;5019175;28;20200;-66
2020/12/28 12:25:39;;;;;;;10.70;6.10;;;5.10;99.90;;;;;;5017274;28;20237;-65
2020/12/28 12:28:06;;;;;;;11.03;6.53;;;5.20;99.90;;;;;;5018063;28;20204;-66
2020/12/28 12:30:32;;;;;;;11.20;7.60;;;5.20;99.90;;;;;;5018571;28;20211;-65
2020/12/28 12:33:00;;;;;;;13.40;6.93;;;5.40;99.90;;;;;;5017797;28;20654;-66
2020/12/28 12:35:27;;;;;;;10.53;6.97;;;5.50;99.90;;;;;;5014564;28;20225;-66
2020/12/28 12:37:54;;;;;;;13.23;7.10;;;5.60;99.90;;;;;;5015500;28;20224;-63
2020/12/28 12:40:20;;;;;;;11.83;7.33;;;5.60;99.90;;;;;;5008251;28;20274;-69
2020/12/28 12:42:46;;;;;;;12.27;6.90;;;5.80;99.90;;;;;;5015575;28;20196;-64
2020/12/28 12:45:13;;;;;;;8.83;6.87;;;5.80;99.90;;;;;;5017891;28;20212;-63
2020/12/28 12:47:41;;;;;;;15.43;7.13;;;5.90;99.90;;;;;;5017383;28;20354;-63
2020/12/28 12:50:08;;;;;;;13.50;7.53;;;6.10;99.90;;;;;;5022962;28;20216;-64
2020/12/28 12:52:35;;;;;;;12.77;8.00;;;6.50;99.90;;;;;;5019310;28;20551;-64
2020/12/28 12:55:02;;;;;;;12.57;7.00;;;7.00;99.90;;;;;;5017559;28;20219;-63